Impacts TAF Board INFO
FOR SITUATIONAL AWARENESS. NOT TO BE USED FOR FLIGHT PLANNING PURPOSES.
IDs:

KDHN - Dothan Rgnl, AL, US

Issued at 1316 UTC 21 Feb 2018
Updated at 1331 UTC 21 Feb 2018
Potential Impact None Slight Moderate High
Time<<22/02Z 22/03Z 22/04Z 22/05Z 22/06Z 22/07Z 22/08Z 22/09Z 22/10Z 22/11Z 22/12Z 22/13Z 22/14Z>>
Type PRVL PRVL PRVL PRVL PRVL PRVL PRVL PRVL PRVL PRVL
VIS >6 >6 >6 >6 >6 6 6 6 6 6
CIG -- -- -- -- -- -- -- -- -- --
Cover SCT SCT SCT SCT SCT SCT SCT SCT SCT SCT
FltCat VFR VFR VFR VFR VFR VFR VFR VFR VFR VFR
WX -- -- -- -- -- BR BR BR BR BR
WDir 170 170 170 170 170 180 180 180 180 180
WSpd 11 11 11 11 11 4 4 4 4 4
WGst -- -- -- -- -- -- -- -- -- --

Raw TAF
KDHN 211316Z 2113/2212 14005KT 6SM BR BKN008
  FM211600 16011KT P6SM BKN020
  FM211900 17011KT P6SM SCT030
  FM220700 18004KT 6SM BR SCT020


METAR Board
Radar Display
Forecast Discussion

FOR SITUATIONAL AWARENESS. NOT TO BE USED FOR FLIGHT PLANNING PURPOSES.